Time;durP1;ratioP1;P1;durP2;ratioP2;P2;SDS_P1;SDS_P2;PMS_P1;PMS_P2;Temp;Humidity;BMP_temperature;BMP_pressure;BME280_temperature;BME280_humidity;BME280_pressure;Samples;Min_cycle;Max_cycle;Signal;HPM_P1;HPM_P2
2021/08/02 00:00:13;;;;;;;3.00;2.30;;;;;;;10.00;100.00;92918.34;2079386;28;20033;-85
2021/08/02 00:01:21;;;;;;;2.78;2.58;;;;;;;9.96;100.00;92915.75;2070759;28;20034;-84
2021/08/02 00:02:56;;;;;;;4.68;2.75;;;;;;;10.07;100.00;92921.63;2069704;28;20944;-84
2021/08/02 00:04:09;;;;;;;5.45;2.50;;;;;;;9.97;100.00;92921.88;2091874;28;20050;-84
2021/08/02 00:05:10;;;;;;;2.60;2.20;;;;;;;9.91;100.00;92916.25;2095498;28;20036;-84
2021/08/02 00:06:21;;;;;;;3.75;2.67;;;;;;;9.97;100.00;92921.88;2089765;28;20757;-84
2021/08/02 00:07:23;;;;;;;4.60;2.65;;;;;;;9.86;100.00;92916.00;2083564;28;20018;-83
2021/08/02 00:08:27;;;;;;;6.53;2.60;;;;;;;9.87;100.00;92915.59;2081888;28;20029;-84
2021/08/02 00:09:35;;;;;;;3.45;2.67;;;;;;;9.95;100.00;92914.28;2079082;28;20402;-83
2021/08/02 00:10:36;;;;;;;3.97;2.42;;;;;;;10.05;100.00;92915.97;2078387;28;20162;-84
2021/08/02 00:11:54;;;;;;;2.55;2.35;;;;;;;9.95;100.00;92911.59;2073697;28;20025;-84
2021/08/02 00:13:16;;;;;;;3.95;2.40;;;;;;;9.96;100.00;92917.69;2084951;28;20018;-85
2021/08/02 00:14:20;;;;;;;7.07;2.70;;;;;;;9.96;100.00;92910.41;2083503;28;20049;-84
2021/08/02 00:15:21;;;;;;;3.63;2.30;;;;;;;10.00;100.00;92913.75;2082342;28;20029;-84
2021/08/02 00:16:25;;;;;;;6.00;2.28;;;;;;;10.02;100.00;92911.44;2073986;28;20056;-84
2021/08/02 00:17:26;;;;;;;3.17;2.85;;;;;;;9.95;100.00;92914.28;2081846;28;20494;-85
2021/08/02 00:18:28;;;;;;;6.43;2.50;;;;;;;9.93;100.00;92916.63;2082141;28;20051;-84
2021/08/02 00:19:29;;;;;;;3.55;2.38;;;;;;;9.99;100.00;92919.53;2073792;28;20032;-84
2021/08/02 00:20:33;;;;;;;3.13;2.50;;;;;;;9.98;100.00;92913.44;2069665;28;20025;-84
2021/08/02 00:21:35;;;;;;;4.35;2.72;;;;;;;10.01;100.00;92912.63;2074502;28;20026;-84
2021/08/02 00:22:36;;;;;;;6.28;2.85;;;;;;;10.01;100.00;92909.94;2073571;28;20033;-84
2021/08/02 00:23:39;;;;;;;4.28;2.63;;;;;;;10.06;100.00;92914.78;2087991;28;20016;-84
2021/08/02 00:24:41;;;;;;;5.30;2.80;;;;;;;10.05;100.00;92909.84;2081920;28;20021;-84
2021/08/02 00:25:42;;;;;;;9.82;2.70;;;;;;;10.03;100.00;92915.63;2090097;28;20455;-84
2021/08/02 00:26:43;;;;;;;5.28;2.60;;;;;;;9.99;100.00;92908.84;2091739;28;20029;-84
2021/08/02 00:27:45;;;;;;;5.25;2.72;;;;;;;10.00;100.00;92913.75;2083540;28;20072;-83
2021/08/02 00:28:46;;;;;;;6.78;3.15;;;;;;;9.99;100.00;92914.19;2073434;28;20021;-84
2021/08/02 00:29:49;;;;;;;4.47;2.70;;;;;;;10.04;100.00;92916.38;2073306;28;20022;-85
2021/08/02 00:30:51;;;;;;;7.10;2.72;;;;;;;10.03;100.00;92915.63;2088408;28;20029;-84
2021/08/02 00:31:52;;;;;;;3.97;2.78;;;;;;;9.99;100.00;92909.59;2089817;28;20033;-84
2021/08/02 00:32:53;;;;;;;6.53;3.25;;;;;;;9.99;100.00;92920.28;2091579;28;20623;-84
2021/08/02 00:33:54;;;;;;;6.95;2.72;;;;;;;9.98;100.00;92912.69;2090726;28;20024;-84
2021/08/02 00:34:55;;;;;;;8.23;2.08;;;;;;;9.96;100.00;92910.41;2082027;28;20417;-84
2021/08/02 00:36:17;;;;;;;3.70;2.50;;;;;;;10.03;100.00;92910.28;2073377;28;20029;-84
2021/08/02 00:37:28;;;;;;;3.60;2.70;;;;;;;10.06;100.00;92914.78;2079590;28;20024;-85
2021/08/02 00:38:34;;;;;;;5.65;2.38;;;;;;;10.09;100.00;92910.50;2074474;28;20053;-84
2021/08/02 00:39:47;;;;;;;6.63;2.22;;;;;;;10.17;100.00;92913.78;2075754;28;20464;-84
2021/08/02 00:40:48;;;;;;;2.95;2.42;;;;;;;10.11;100.00;92916.22;2083285;28;20406;-84
2021/08/02 00:42:04;;;;;;;2.97;2.50;;;;;;;10.14;100.00;92915.38;2077511;28;20026;-84
2021/08/02 00:43:49;;;;;;;6.65;2.50;;;;;;;10.11;100.00;92916.22;2071721;28;20092;-84
2021/08/02 00:45:08;;;;;;;2.53;2.33;;;;;;;10.13;100.00;92916.53;2077279;28;20028;-83
2021/08/02 00:46:11;;;;;;;3.92;2.20;;;;;;;10.15;100.00;92914.22;2081599;28;20032;-84
2021/08/02 00:47:19;;;;;;;6.38;2.67;;;;;;;10.22;100.00;92915.94;2071612;28;20368;-83
2021/08/02 00:48:27;;;;;;;2.20;2.10;;;;;;;10.16;100.00;92920.28;2076250;28;20487;-84
2021/08/02 00:49:28;;;;;;;4.18;2.50;;;;;;;10.14;100.00;92918.06;2086387;28;20033;-83
2021/08/02 00:50:34;;;;;;;4.55;2.50;;;;;;;10.15;100.00;92918.81;2091948;28;20036;-83
2021/08/02 00:51:38;;;;;;;5.38;2.50;;;;;;;10.15;100.00;92916.13;2091954;28;20471;-83
2021/08/02 00:52:46;;;;;;;6.80;2.42;;;;;;;10.18;100.00;92915.28;2102670;28;20032;-84
2021/08/02 00:53:51;;;;;;;3.88;2.67;;;;;;;10.11;100.00;92916.22;2097618;28;20107;-83
2021/08/02 00:54:57;;;;;;;11.27;2.40;;;;;;;10.01;100.00;92915.28;2073206;28;20041;-84
2021/08/02 00:56:02;;;;;;;3.22;2.30;;;;;;;10.10;100.00;92912.03;2072303;28;20033;-84
2021/08/02 00:57:04;;;;;;;3.58;2.50;;;;;;;10.15;100.00;92916.13;2083137;28;20082;-84
2021/08/02 00:58:11;;;;;;;2.65;2.45;;;;;;;10.18;100.00;92916.03;2081282;28;20021;-84
2021/08/02 00:59:13;;;;;;;3.00;2.80;;;;;;;10.21;100.00;92917.13;2083204;28;20036;-84
2021/08/02 01:00:17;;;;;;;2.95;2.55;;;;;;;10.17;100.00;92919.88;2081137;28;20029;-84
2021/08/02 01:01:19;;;;;;;5.22;2.50;;;;;;;10.17;100.00;92919.88;2081458;28;20021;-84
2021/08/02 01:02:20;;;;;;;2.85;2.65;;;;;;;10.16;100.00;92912.28;2076054;28;20033;-85
2021/08/02 01:03:21;;;;;;;3.05;2.60;;;;;;;10.19;100.00;92917.53;2087097;28;20021;-84
2021/08/02 01:04:24;;;;;;;3.45;2.60;;;;;;;10.22;100.00;92919.38;2079040;28;20029;-84
2021/08/02 01:05:25;;;;;;;8.45;2.67;;;;;;;10.25;100.00;92915.16;2081323;28;20451;-85
2021/08/02 01:06:29;;;;;;;8.25;3.65;;;;;;;10.26;100.00;92913.97;2092298;28;20044;-83
2021/08/02 01:07:31;;;;;;;16.73;3.13;;;;;;;10.27;100.00;92912.78;2076634;28;20052;-84
2021/08/02 01:08:37;;;;;;;2.55;2.35;;;;;;;10.30;100.00;92917.31;2088331;28;20025;-84
2021/08/02 01:09:42;;;;;;;7.90;2.75;;;;;;;10.30;100.00;92917.31;2089043;28;20060;-85
2021/08/02 01:10:50;;;;;;;2.22;2.03;;;;;;;10.26;100.00;92921.97;2090026;28;20478;-84
2021/08/02 01:11:54;;;;;;;4.22;2.72;;;;;;;10.32;100.00;92912.31;2090587;28;20032;-84
2021/08/02 01:13:01;;;;;;;5.95;2.60;;;;;;;10.30;100.00;92911.97;2089823;28;20454;-84
2021/08/02 01:14:08;;;;;;;7.95;2.75;;;;;;;10.31;100.00;92914.22;2081049;28;20026;-84
2021/08/02 01:15:17;;;;;;;11.85;2.83;;;;;;;10.27;100.00;92907.44;2086817;28;20025;-84
2021/08/02 01:16:33;;;;;;;3.70;2.95;;;;;;;10.26;100.00;92917.38;2082382;28;20025;-84
2021/08/02 01:17:37;;;;;;;4.88;2.80;;;;;;;10.26;100.00;92909.38;2093633;28;20028;-84
2021/08/02 01:18:45;;;;;;;2.85;2.65;;;;;;;10.32;100.00;92915.00;2085200;28;20032;-83
2021/08/02 01:19:49;;;;;;;5.28;2.45;;;;;;;10.35;100.00;92911.47;2082374;28;20108;-84
2021/08/02 01:20:57;;;;;;;2.80;2.60;;;;;;;10.32;100.00;92906.97;2089343;28;20086;-84
2021/08/02 01:22:01;;;;;;;5.13;2.65;;;;;;;10.31;100.00;92906.19;2095019;28;20024;-84
2021/08/02 01:23:05;;;;;;;4.25;2.35;;;;;;;10.29;100.00;92910.47;2092493;28;20028;-84
2021/08/02 01:24:07;;;;;;;5.47;2.50;;;;;;;10.29;100.00;92905.88;2092006;28;20382;-83
2021/08/02 01:25:43;;;;;;;5.00;2.70;;;;;;;10.32;100.00;92912.31;2097753;28;20036;-84
2021/08/02 01:26:44;;;;;;;4.25;2.45;;;;;;;10.29;100.00;92907.81;2080770;28;20087;-83
2021/08/02 01:28:07;;;;;;;4.15;2.60;;;;;;;10.26;100.00;92912.03;2092525;28;20036;-83
2021/08/02 01:29:45;;;;;;;11.20;2.50;;;;;;;10.30;100.00;92907.38;2102542;28;20106;-84
2021/08/02 01:30:57;;;;;;;2.47;2.28;;;;;;;10.26;100.00;92909.38;2094570;28;20505;-84
2021/08/02 01:32:03;;;;;;;7.15;2.45;;;;;;;10.27;100.00;92908.22;2097932;28;20056;-83
2021/08/02 01:33:08;;;;;;;4.80;2.72;;;;;;;10.28;100.00;92904.38;2080267;28;20108;-84
2021/08/02 01:34:10;;;;;;;3.50;2.10;;;;;;;10.37;100.00;92901.13;2081778;28;20032;-84
2021/08/02 01:35:13;;;;;;;4.80;2.30;;;;;;;10.30;100.00;92902.03;2088659;28;20017;-83
2021/08/02 01:36:14;;;;;;;5.72;2.83;;;;;;;10.31;100.00;92906.19;2085103;28;20097;-84
2021/08/02 01:37:15;;;;;;;3.97;2.38;;;;;;;10.33;100.00;92908.47;2074973;28;20414;-84
2021/08/02 01:38:16;;;;;;;5.43;2.45;;;;;;;10.32;100.00;92909.66;2085867;28;20021;-84
2021/08/02 01:39:17;;;;;;;2.60;2.40;;;;;;;10.30;100.00;92907.38;2081083;28;20029;-83
2021/08/02 01:40:18;;;;;;;4.53;2.40;;;;;;;10.29;100.00;92913.91;2097494;28;20063;-84
2021/08/02 01:41:20;;;;;;;5.15;2.35;;;;;;;10.30;100.00;92911.97;2095301;28;20111;-83
2021/08/02 01:42:22;;;;;;;6.88;2.50;;;;;;;10.27;100.00;92913.56;2080159;28;20029;-83
2021/08/02 01:43:24;;;;;;;2.08;1.98;;;;;;;10.25;100.00;92910.56;2089415;28;20028;-83
2021/08/02 01:44:28;;;;;;;3.38;2.40;;;;;;;10.28;100.00;92911.66;2081371;28;20056;-83
2021/08/02 01:45:44;;;;;;;2.58;1.95;;;;;;;10.20;100.00;92908.34;2078309;28;20047;-83
2021/08/02 01:47:36;;;;;;;4.93;2.30;;;;;;;10.16;100.00;92913.03;2094354;28;20435;-83
2021/08/02 01:49:02;;;;;;;1.90;1.80;;;;;;;10.17;100.00;92913.78;2087437;28;20530;-84
2021/08/02 01:50:26;;;;;;;8.13;2.10;;;;;;;10.22;100.00;92913.28;2086462;28;20079;-84
2021/08/02 01:51:43;;;;;;;4.40;2.10;;;;;;;10.14;100.00;92909.25;2094422;28;20027;-84
2021/08/02 01:53:01;;;;;;;1.98;1.85;;;;;;;10.09;100.00;92907.84;2085326;28;20436;-84
2021/08/02 01:54:26;;;;;;;5.18;2.20;;;;;;;10.11;100.00;92907.44;2081080;28;20466;-84
2021/08/02 01:55:28;;;;;;;4.68;1.98;;;;;;;10.09;100.00;92905.19;2087448;28;20021;-85
2021/08/02 01:56:40;;;;;;;6.63;2.47;;;;;;;10.13;100.00;92907.78;2089316;28;20017;-84
2021/08/02 01:57:53;;;;;;;2.40;2.20;;;;;;;10.13;100.00;92905.84;2097770;28;20478;-84
2021/08/02 01:59:05;;;;;;;3.03;2.28;;;;;;;10.16;100.00;92904.28;2096933;28;20074;-84
2021/08/02 02:00:12;;;;;;;3.22;2.30;;;;;;;10.09;100.00;92908.59;2090901;28;20025;-84
2021/08/02 02:01:13;;;;;;;4.15;2.35;;;;;;;10.08;100.00;92901.00;2084696;28;20478;-84
2021/08/02 02:02:17;;;;;;;5.57;2.67;;;;;;;10.12;100.00;92908.94;2088675;28;20043;-84
2021/08/02 02:03:23;;;;;;;3.95;2.38;;;;;;;10.11;100.00;92908.19;2089486;28;20111;-85
2021/08/02 02:04:31;;;;;;;2.90;2.70;;;;;;;10.21;100.00;92903.75;2089779;28;20025;-84
2021/08/02 02:06:39;;;;;;;;;;;;;;;10.12;100.00;92908.94;2148567;27;20575;-85
2021/08/02 02:07:59;;;;;;;2.50;2.30;;;;;;;10.13;100.00;92913.09;2126494;27;19912;-86
2021/08/02 02:09:11;;;;;;;3.85;2.10;;;;;;;10.11;100.00;92905.53;2113921;28;20028;-86
2021/08/02 02:10:14;;;;;;;6.95;2.45;;;;;;;10.02;100.00;92908.03;2104541;28;20105;-87
2021/08/02 02:11:15;;;;;;;3.28;2.95;;;;;;;9.99;100.00;92906.94;2115914;27;20114;-85
2021/08/02 02:12:17;;;;;;;2.92;2.70;;;;;;;10.00;100.00;92905.00;2123846;27;20026;-85
2021/08/02 02:13:31;;;;;;;6.18;2.78;;;;;;;10.03;100.00;92904.94;2118099;27;20522;-85
2021/08/02 02:14:36;;;;;;;2.47;2.28;;;;;;;10.04;100.00;92905.69;2103602;27;20382;-85
2021/08/02 02:15:39;;;;;;;3.42;2.47;;;;;;;10.07;100.00;92908.28;2116054;27;20535;-85
2021/08/02 02:16:47;;;;;;;5.53;2.40;;;;;;;9.98;100.00;92907.34;2110587;27;20027;-85
2021/08/02 02:17:49;;;;;;;5.10;2.50;;;;;;;10.00;100.00;92905.75;2118514;28;20024;-85
2021/08/02 02:18:54;;;;;;;3.70;2.20;;;;;;;10.01;100.00;92909.19;2110335;27;20024;-85
2021/08/02 02:19:56;;;;;;;7.20;2.75;;;;;;;10.00;100.00;92905.00;2112625;27;20087;-85
2021/08/02 02:21:02;;;;;;;6.50;2.40;;;;;;;10.05;100.00;92915.19;2106798;27;20024;-85
2021/08/02 02:22:03;;;;;;;2.47;2.17;;;;;;;10.00;100.00;92913.03;2108671;28;20568;-85
2021/08/02 02:23:05;;;;;;;3.83;2.80;;;;;;;10.05;100.00;92902.59;2108952;27;20030;-86
2021/08/02 02:24:06;;;;;;;3.47;2.80;;;;;;;10.02;100.00;92908.78;2107821;28;20056;-85
2021/08/02 02:25:11;;;;;;;4.70;3.15;;;;;;;10.00;100.00;92913.03;2110306;28;20019;-84
2021/08/02 02:26:13;;;;;;;8.27;2.85;;;;;;;10.00;100.00;92905.00;2116941;28;20031;-85
2021/08/02 02:27:14;;;;;;;4.47;2.33;;;;;;;9.99;100.00;92909.59;2114244;28;20472;-86
2021/08/02 02:28:16;;;;;;;4.25;2.90;;;;;;;10.08;100.00;92909.03;2105884;28;20031;-85
2021/08/02 02:29:19;;;;;;;2.60;2.40;;;;;;;10.02;100.00;92906.09;2111576;27;20015;-87
2021/08/02 02:30:20;;;;;;;7.82;3.13;;;;;;;10.01;100.00;92911.88;2116647;27;20043;-85
2021/08/02 02:31:23;;;;;;;3.22;2.63;;;;;;;9.99;100.00;92911.53;2119030;27;20019;-85
2021/08/02 02:32:25;;;;;;;2.95;2.50;;;;;;;9.95;100.00;92902.84;2111420;27;20020;-85
2021/08/02 02:33:30;;;;;;;5.60;2.60;;;;;;;9.95;100.00;92908.94;2104144;28;20020;-85
2021/08/02 02:34:34;;;;;;;3.47;2.70;;;;;;;9.90;100.00;92912.09;2116826;27;20043;-86
2021/08/02 02:35:40;;;;;;;3.50;2.17;;;;;;;10.00;100.00;92905.00;2114640;28;20074;-85
2021/08/02 02:36:42;;;;;;;5.00;2.45;;;;;;;10.02;100.00;92916.03;2117836;27;20023;-85
2021/08/02 02:37:44;;;;;;;3.55;2.30;;;;;;;9.99;100.00;92914.19;2121221;28;20071;-85
2021/08/02 02:38:46;;;;;;;3.83;3.28;;;;;;;9.97;100.00;92913.88;2108010;28;20067;-85
2021/08/02 02:39:48;;;;;;;5.80;2.60;;;;;;;9.93;100.00;92910.53;2108087;27;20600;-85
2021/08/02 02:40:50;;;;;;;6.35;2.55;;;;;;;9.96;100.00;92920.34;2113712;28;20035;-85
2021/08/02 02:41:52;;;;;;;2.67;2.42;;;;;;;9.94;100.00;92918.13;2114249;28;20027;-86
2021/08/02 02:42:53;;;;;;;3.50;2.58;;;;;;;9.92;100.00;92919.69;2108979;27;20051;-85
2021/08/02 02:43:55;;;;;;;4.35;2.30;;;;;;;9.92;100.00;92919.69;2108119;27;20016;-86
2021/08/02 02:44:57;;;;;;;5.43;2.38;;;;;;;9.92;100.00;92919.69;2110522;27;20450;-85
2021/08/02 02:46:00;;;;;;;3.45;2.50;;;;;;;9.88;100.00;92917.13;2128035;27;20035;-85
2021/08/02 02:47:01;;;;;;;4.57;2.50;;;;;;;9.86;100.00;92911.44;2125351;27;20027;-85
2021/08/02 02:48:04;;;;;;;4.47;2.63;;;;;;;9.91;100.00;92923.53;2106384;28;20020;-85
2021/08/02 02:49:06;;;;;;;2.72;2.53;;;;;;;9.89;100.00;92918.63;2107209;28;20047;-86
2021/08/02 02:50:08;;;;;;;2.33;2.20;;;;;;;9.92;100.00;92915.13;2105820;28;20020;-86
2021/08/02 02:51:10;;;;;;;4.10;2.78;;;;;;;9.94;100.00;92920.78;2114548;27;20020;-85
2021/08/02 02:52:12;;;;;;;5.15;2.45;;;;;;;9.93;100.00;92919.28;2127567;27;20094;-85
2021/08/02 02:53:14;;;;;;;3.17;2.28;;;;;;;9.94;100.00;92923.44;2117786;28;20039;-85
2021/08/02 02:54:18;;;;;;;6.00;2.47;;;;;;;9.97;100.00;92919.97;2120604;27;20565;-85
2021/08/02 02:55:23;;;;;;;5.38;2.47;;;;;;;9.92;100.00;92923.13;2113242;28;20028;-85
2021/08/02 02:56:25;;;;;;;4.93;2.28;;;;;;;9.98;100.00;92921.44;2097655;28;20017;-85
2021/08/02 02:57:26;;;;;;;5.13;2.50;;;;;;;9.97;100.00;92927.97;2107709;27;20107;-85
2021/08/02 02:58:27;;;;;;;2.50;2.30;;;;;;;9.96;100.00;92920.34;2121210;27;20494;-85
2021/08/02 02:59:28;;;;;;;3.58;2.58;;;;;;;9.99;100.00;92920.28;2125508;27;20399;-85
2021/08/02 03:00:29;;;;;;;4.85;2.42;;;;;;;9.98;100.00;92926.03;2120538;27;20016;-85
2021/08/02 03:01:51;;;;;;;3.15;2.47;;;;;;;9.97;100.00;92927.97;2119421;28;20127;-85
2021/08/02 03:02:55;;;;;;;3.17;2.42;;;;;;;9.96;100.00;92923.78;2118129;27;20059;-85
2021/08/02 03:03:59;;;;;;;3.42;2.70;;;;;;;9.91;100.00;92926.94;2109012;27;20055;-85
2021/08/02 03:05:01;;;;;;;6.65;2.28;;;;;;;9.96;100.00;92925.69;2111649;27;20024;-86
2021/08/02 03:06:03;;;;;;;2.53;2.33;;;;;;;9.95;100.00;92924.94;2112948;28;20585;-85
2021/08/02 03:07:09;;;;;;;8.13;2.53;;;;;;;9.92;100.00;92925.81;2122189;27;21110;-85
2021/08/02 03:08:13;;;;;;;5.53;2.25;;;;;;;9.94;100.00;92933.38;2107599;27;20032;-85
2021/08/02 03:09:18;;;;;;;3.55;2.50;;;;;;;9.89;100.00;92923.19;2108988;28;20414;-85
2021/08/02 03:10:24;;;;;;;2.30;2.08;;;;;;;9.92;100.00;92928.47;2103920;27;20023;-85
2021/08/02 03:11:26;;;;;;;5.53;2.50;;;;;;;9.88;100.00;92935.81;2112563;28;20024;-85
2021/08/02 03:12:30;;;;;;;2.13;2.00;;;;;;;9.82;100.00;92932.09;2108326;27;20015;-85
2021/08/02 03:13:31;;;;;;;3.35;2.13;;;;;;;9.86;100.00;92938.13;2118296;27;20024;-85
2021/08/02 03:14:33;;;;;;;2.53;2.08;;;;;;;9.91;100.00;92934.94;2121736;27;20020;-85
2021/08/02 03:15:34;;;;;;;3.03;2.17;;;;;;;9.89;100.00;92931.22;2118296;27;20023;-86
2021/08/02 03:16:35;;;;;;;2.25;2.10;;;;;;;9.97;100.00;92924.56;2117293;28;20484;-85
2021/08/02 03:17:35;;;;;;;2.10;1.92;;;;;;;9.92;100.00;92928.47;2113525;28;20028;-86
2021/08/02 03:18:37;;;;;;;6.97;2.60;;;;;;;9.86;100.00;92937.38;2110549;28;20443;-86
2021/08/02 03:19:39;;;;;;;6.25;2.47;;;;;;;9.90;100.00;92932.72;2113444;28;20016;-86
2021/08/02 03:20:40;;;;;;;3.40;2.85;;;;;;;9.84;100.00;92933.22;2124563;27;20023;-86
2021/08/02 03:21:42;;;;;;;3.63;2.28;;;;;;;9.88;100.00;92941.13;2108208;27;20024;-86
2021/08/02 03:22:50;;;;;;;4.97;2.20;;;;;;;9.90;100.00;92941.47;2117048;27;20023;-85
2021/08/02 03:24:15;;;;;;;2.55;2.35;;;;;;;9.86;100.00;92938.13;2121276;27;20023;-85
2021/08/02 03:25:55;;;;;;;8.45;2.13;;;;;;;9.88;100.00;92938.47;2117239;27;20514;-85
2021/08/02 03:27:04;;;;;;;2.72;2.17;;;;;;;9.85;100.00;92944.63;2107036;27;20047;-85
2021/08/02 03:28:25;;;;;;;3.70;2.40;;;;;;;9.88;100.00;92943.81;2107966;28;20055;-85
2021/08/02 03:29:31;;;;;;;5.05;2.03;;;;;;;9.87;100.00;92942.28;2109961;27;20031;-86
2021/08/02 03:30:36;;;;;;;3.95;2.20;;;;;;;9.79;100.00;92941.72;2101734;27;20020;-85
2021/08/02 03:31:45;;;;;;;2.45;2.13;;;;;;;9.81;100.00;92941.28;2113433;28;20535;-86
2021/08/02 03:32:46;;;;;;;2.47;2.28;;;;;;;9.82;100.00;92946.19;2123409;27;20039;-85
2021/08/02 03:33:49;;;;;;;2.33;2.13;;;;;;;9.83;100.00;92944.28;2114153;27;20106;-86
2021/08/02 03:34:59;;;;;;;3.08;2.45;;;;;;;9.81;100.00;92947.38;2101109;28;20470;-86
2021/08/02 03:36:04;;;;;;;2.70;2.28;;;;;;;9.79;100.00;92944.38;2102416;28;20056;-85
2021/08/02 03:37:11;;;;;;;2.05;1.95;;;;;;;9.74;100.00;92950.19;2099519;28;20033;-85
2021/08/02 03:38:14;;;;;;;2.50;2.30;;;;;;;9.76;100.00;92947.13;2108038;27;20541;-85
2021/08/02 03:39:18;;;;;;;2.35;2.10;;;;;;;9.72;100.00;92941.84;2109424;28;20080;-85
2021/08/02 03:40:19;;;;;;;7.72;2.10;;;;;;;9.76;100.00;92949.78;2103456;28;20023;-85
2021/08/02 03:41:21;;;;;;;5.40;2.28;;;;;;;9.77;100.00;92943.28;2099232;28;20028;-85
2021/08/02 03:42:23;;;;;;;2.65;2.10;;;;;;;9.69;100.00;92956.00;2095728;28;20550;-86
2021/08/02 03:43:24;;;;;;;1.98;1.88;;;;;;;9.74;100.00;92941.44;2107193;28;20130;-85
2021/08/02 03:44:27;;;;;;;6.40;2.30;;;;;;;9.69;100.00;92949.94;2103563;28;20032;-85
2021/08/02 03:45:28;;;;;;;2.83;2.25;;;;;;;9.68;100.00;92949.19;2113381;28;20115;-85
2021/08/02 03:46:29;;;;;;;5.93;1.95;;;;;;;9.69;100.00;92952.59;2111966;27;20021;-86
2021/08/02 03:47:31;;;;;;;4.80;2.00;;;;;;;9.65;100.00;92952.66;2109422;28;20086;-86
2021/08/02 03:48:33;;;;;;;3.65;2.22;;;;;;;9.67;100.00;92954.94;2111451;27;20031;-86
2021/08/02 03:49:34;;;;;;;2.38;2.17;;;;;;;9.67;100.00;92949.59;2114738;28;20028;-86
2021/08/02 03:50:37;;;;;;;2.10;2.00;;;;;;;9.63;100.00;92952.34;2102090;28;20470;-85
2021/08/02 03:51:55;;;;;;;2.20;2.00;;;;;;;9.65;100.00;92959.94;2106619;27;20839;-85
2021/08/02 03:52:57;;;;;;;1.90;1.80;;;;;;;9.65;100.00;92955.34;2110083;28;20499;-86
2021/08/02 03:53:58;;;;;;;2.13;1.98;;;;;;;9.59;100.00;92957.00;2102955;28;20054;-86
2021/08/02 03:55:00;;;;;;;5.72;2.17;;;;;;;9.63;100.00;92956.94;2106589;28;20086;-86
2021/08/02 03:56:01;;;;;;;5.05;2.20;;;;;;;9.63;100.00;92956.94;2105019;28;20451;-85
2021/08/02 03:57:02;;;;;;;2.90;2.05;;;;;;;9.64;100.00;92963.75;2101750;28;20464;-86
2021/08/02 03:58:06;;;;;;;2.13;2.03;;;;;;;9.67;100.00;92960.28;2102028;28;20519;-85
2021/08/02 03:59:07;;;;;;;2.47;1.85;;;;;;;9.60;100.00;92963.84;2100892;27;20037;-85
2021/08/02 04:00:08;;;;;;;2.45;2.13;;;;;;;9.56;100.00;92958.56;2107530;28;20651;-85
2021/08/02 04:01:11;;;;;;;3.15;2.00;;;;;;;9.63;100.00;92972.94;2112847;28;20491;-85
2021/08/02 04:02:12;;;;;;;4.28;2.03;;;;;;;9.56;100.00;92968.50;2112938;27;20049;-86
2021/08/02 04:03:13;;;;;;;4.85;2.22;;;;;;;9.63;100.00;92970.28;2109620;28;20024;-86
2021/08/02 04:04:14;;;;;;;3.70;2.33;;;;;;;9.59;100.00;92965.75;2109205;28;20024;-86
2021/08/02 04:05:16;;;;;;;4.82;2.38;;;;;;;9.66;100.00;92969.44;2109663;27;20185;-85
2021/08/02 04:06:17;;;;;;;2.72;2.28;;;;;;;9.64;100.00;92975.19;2110376;28;20488;-86
2021/08/02 04:07:18;;;;;;;2.20;1.98;;;;;;;9.65;100.00;92971.34;2097503;28;20036;-86
2021/08/02 04:08:19;;;;;;;3.70;2.08;;;;;;;9.58;100.00;92963.50;2100165;28;20020;-86
2021/08/02 04:09:20;;;;;;;5.28;2.20;;;;;;;9.61;100.00;92975.25;2105954;28;20384;-86
2021/08/02 04:10:21;;;;;;;2.15;2.00;;;;;;;9.56;100.00;92971.16;2098324;27;20127;-86
2021/08/02 04:11:22;;;;;;;3.60;2.10;;;;;;;9.66;100.00;92969.44;2110754;27;20114;-86
2021/08/02 04:12:23;;;;;;;4.35;2.22;;;;;;;9.64;100.00;92969.84;2110754;28;20032;-86
2021/08/02 04:13:24;;;;;;;4.57;2.38;;;;;;;9.63;100.00;92976.34;2103541;28;20031;-85
2021/08/02 04:14:24;;;;;;;2.85;2.22;;;;;;;9.67;100.00;92976.28;2111671;28;20024;-86
2021/08/02 04:15:25;;;;;;;4.72;2.03;;;;;;;9.69;100.00;92982.69;2092687;28;20029;-86
2021/08/02 04:16:26;;;;;;;2.03;1.83;;;;;;;9.69;100.00;92977.38;2117063;27;20027;-86
2021/08/02 04:17:27;;;;;;;3.45;2.03;;;;;;;9.71;100.00;92977.72;2123863;27;20019;-85
2021/08/02 04:18:29;;;;;;;2.15;2.00;;;;;;;9.72;100.00;92979.22;2108663;28;20020;-85
2021/08/02 04:19:30;;;;;;;2.45;2.05;;;;;;;9.73;100.00;92969.28;2106746;27;20077;-86
2021/08/02 04:20:31;;;;;;;2.22;2.08;;;;;;;9.76;100.00;92979.91;2105885;28;20096;-86
2021/08/02 04:21:33;;;;;;;2.08;1.90;;;;;;;9.75;100.00;92978.41;2114322;28;20422;-86
2021/08/02 04:22:34;;;;;;;3.03;2.20;;;;;;;9.73;100.00;92982.63;2100474;28;20377;-86
2021/08/02 04:23:35;;;;;;;2.72;2.20;;;;;;;9.74;100.00;92974.22;2103366;28;20029;-85
2021/08/02 04:24:36;;;;;;;2.40;1.85;;;;;;;9.76;100.00;92977.22;2103848;28;20534;-86
2021/08/02 04:25:38;;;;;;;2.70;2.00;;;;;;;9.76;100.00;92987.16;2099797;28;20021;-86
2021/08/02 04:26:39;;;;;;;5.25;1.95;;;;;;;9.72;100.00;92991.81;2098016;28;20024;-86
2021/08/02 04:27:39;;;;;;;2.35;2.10;;;;;;;9.72;100.00;92997.16;2100683;28;20032;-86
2021/08/02 04:28:42;;;;;;;2.20;2.00;;;;;;;9.70;100.00;92986.91;2102026;28;20029;-86
2021/08/02 04:29:43;;;;;;;5.20;2.03;;;;;;;9.72;100.00;92989.16;2108391;28;20022;-86
2021/08/02 04:30:44;;;;;;;2.50;2.30;;;;;;;9.69;100.00;92990.72;2103238;28;20027;-86
2021/08/02 04:31:45;;;;;;;3.55;2.30;;;;;;;9.76;100.00;92987.91;2110109;28;20053;-86
2021/08/02 04:32:47;;;;;;;3.88;2.10;;;;;;;9.78;100.00;92990.16;2121948;27;20140;-85
2021/08/02 04:33:48;;;;;;;2.10;1.98;;;;;;;9.82;100.00;92990.84;2113805;28;20027;-86
2021/08/02 04:34:49;;;;;;;2.75;2.03;;;;;;;9.81;100.00;92990.09;2094686;28;20139;-86
2021/08/02 04:35:50;;;;;;;4.05;2.40;;;;;;;9.78;100.00;92987.47;2102905;28;20114;-85
2021/08/02 04:36:51;;;;;;;2.60;2.40;;;;;;;9.77;100.00;92989.41;2112728;28;20024;-85
2021/08/02 04:37:52;;;;;;;2.90;2.40;;;;;;;9.76;100.00;92987.16;2105700;28;20031;-84
2021/08/02 04:38:54;;;;;;;3.97;2.47;;;;;;;9.78;100.00;92990.16;2106457;28;20024;-86
2021/08/02 04:39:57;;;;;;;2.63;2.42;;;;;;;9.77;100.00;92991.31;2109565;28;20040;-85
2021/08/02 04:40:58;;;;;;;2.60;2.40;;;;;;;9.78;100.00;92990.16;2098341;28;20031;-85
2021/08/02 04:41:59;;;;;;;2.65;2.45;;;;;;;9.78;100.00;92985.56;2107476;28;20024;-86
2021/08/02 04:43:00;;;;;;;2.50;2.17;;;;;;;9.80;100.00;92990.50;2106179;28;20058;-85
2021/08/02 04:44:01;;;;;;;3.20;2.13;;;;;;;9.76;100.00;92987.16;2106848;28;20500;-86
2021/08/02 04:45:03;;;;;;;4.25;2.10;;;;;;;9.79;100.00;92989.75;2113943;28;20035;-85
2021/08/02 04:46:04;;;;;;;2.30;2.10;;;;;;;9.85;100.00;92990.00;2113180;28;20111;-84
2021/08/02 04:47:05;;;;;;;2.97;2.67;;;;;;;9.83;100.00;92989.66;2111366;28;20028;-85
2021/08/02 04:48:06;;;;;;;2.70;2.28;;;;;;;9.85;100.00;92987.34;2105826;28;20054;-85
2021/08/02 04:49:07;;;;;;;2.40;2.20;;;;;;;9.94;100.00;92986.78;2120132;27;20102;-85
2021/08/02 04:50:08;;;;;;;4.93;3.70;;;;;;;9.90;100.00;92988.78;2110110;28;20533;-85
2021/08/02 04:51:10;;;;;;;5.25;3.78;;;;;;;9.91;100.00;92985.69;2100275;28;20380;-85
2021/08/02 04:52:11;;;;;;;6.57;5.85;;;;;;;9.92;100.00;92989.88;2098827;28;20032;-86
2021/08/02 04:53:12;;;;;;;3.75;3.28;;;;;;;9.95;100.00;92989.03;2113444;27;20532;-85
2021/08/02 04:54:13;;;;;;;10.32;6.65;;;;;;;9.99;100.00;92984.38;2131820;27;20052;-85
2021/08/02 04:55:14;;;;;;;3.42;3.13;;;;;;;9.86;100.00;92986.16;2110749;28;20024;-85
2021/08/02 04:56:14;;;;;;;3.45;3.15;;;;;;;9.88;100.00;92983.84;2096521;28;20038;-86
2021/08/02 04:57:17;;;;;;;3.72;2.10;;;;;;;9.82;100.00;92980.91;2109045;28;20067;-85
2021/08/02 04:58:17;;;;;;;2.55;2.30;;;;;;;9.98;100.00;92982.13;2105986;28;20468;-85
2021/08/02 04:59:18;;;;;;;2.90;2.58;;;;;;;10.05;100.00;92989.97;2098009;28;20066;-85
2021/08/02 05:00:19;;;;;;;6.22;2.47;;;;;;;10.01;100.00;92987.38;2097637;28;20050;-85
2021/08/02 05:01:20;;;;;;;2.53;2.33;;;;;;;10.01;100.00;92982.03;2098917;28;20020;-84
2021/08/02 05:02:21;;;;;;;3.40;2.55;;;;;;;10.00;100.00;92985.88;2103065;28;20027;-85
2021/08/02 05:03:22;;;;;;;2.72;2.53;;;;;;;9.95;100.00;92989.03;2101192;28;20031;-84
2021/08/02 05:04:23;;;;;;;3.35;2.40;;;;;;;9.97;100.00;92986.72;2100935;28;20031;-84